Hlavní strana
METAR-TAF:

METAR-TAF

Letiště :

Atyrau, Kazachstán

zeměpisná šířka: 47-07-19N, zeměpisná délka: 051-49-17E, výška: -22 m

Aktuální stav počasí

Zpráva byla vytvořena před 22 minutami, v 04:30 UTC
Severovýchodní vítr 6 kt
Teplota -9°C
Vlhkost vzduchu 92%
Tlak 1034 hPa
Viditelnost: 5000 m
kouřmo

METAR: UATG 180430Z 04003MPS 5000 BR NSC M09/M10 Q1034 R32/CLRD70 NOSIG RMK QFE778/1037

Čas: 10:52 (04:52 UTC)

Předpověď počasí

Zpráva byla vytvořena před 1 hodinou a 19 minutami, v 03:33 UTC
Předpověď platná od 18 v 03 UTC do 18 v 24 UTC
vítr z různých směrů 6 kt
Viditelnost: 3100 m
Oblačno až skoro zataženo ve výšce 1100 ft
kouřmo
Změna
od 18 v 08 UTC do 18 v 10 UTC
Viditelnost 10 km a více
Polojasno ve výšce 2000 ft
Změna
od 18 v 14 UTC do 18 v 16 UTC
Viditelnost: 3100 m
Oblačno až skoro zataženo ve výšce 1100 ft
kouřmo

TAF: UATG 180333Z 1803/1824 VRB03MPS 3100 BR BKN011 TX05/1810Z TNM09/1803Z BECMG 1808/1810 9999 NSW SCT020 BECMG 1814/1816 3100 BR BKN011

Stav a předpovědi počasí z více než 4 000 letišť (zprávy METAR a TAF).

Červené a žluté tečky na mapě představují dostupné meteorologické stanice.

Když kurzor umístíte na tečku, zobrazí se název stanice.

Pak kliknutím zobrazíte stav a předpověď počasí.

Chcete-li změnit mapu, kliknutím na zelené tlačítko se znaménkem +mapu přiblížíte, kliknutím na zelené tlačítko se znaménkem – mapu oddálíte a kliknutím na zelené šipky přejdete na sousední mapy.


METAR-TAF: